Woodleaf, California
Current Conditions -  °F | °C
As of 5:20 AM on Thursday 27 Nov 2014 (Local Time) from KGOO Reporting Station
Clear Clear  
Wind Chill: 59°   Ceiling: Unl
Heat Index: 59°   Visibility: 10mi
Dew Point: 27°   Wind: 5mph
Humidity: 29%   Direction: 120°ESE
Pressure: 30.23"   Gusts: NA
Location:  39.4476°N, 121.176°W
Report Text: KGOO 271320Z AUTO 12004KT 10SM CLR 15/M03 A3023 RMK AO1
Loading
Personal Weather Stations






























Interactive Weather Map New forecast layout! Learn more

10-Day Weather Forecast

Advertisements
Track Severe Weather on mobile